createdAt,value
2023-02-06T00:01:26.522Z,103218.34
2023-02-06T00:03:53.248Z,103221.53
2023-02-06T00:06:20.025Z,103225.34
2023-02-06T00:08:46.664Z,103228.81
2023-02-06T00:11:16.724Z,103237.56
2023-02-06T00:13:47.749Z,103247.25
2023-02-06T00:16:20.081Z,103242.09
2023-02-06T00:18:47.504Z,103242.38
2023-02-06T00:21:14.494Z,103234.47
2023-02-06T00:23:43.118Z,103230.16
2023-02-06T00:26:09.835Z,103232.16
2023-02-06T00:28:36.472Z,103229.97
2023-02-06T00:31:05.890Z,103227.78
2023-02-06T00:33:32.647Z,103234.06
2023-02-06T00:36:01.954Z,103244.59
2023-02-06T00:38:30.655Z,103238.13
2023-02-06T00:40:57.259Z,103236.19
2023-02-06T00:43:24.014Z,103236.31
2023-02-06T00:45:55.220Z,103229.19
2023-02-06T00:48:22.486Z,103237.28
2023-02-06T00:50:50.189Z,103224.72
2023-02-06T00:53:17.169Z,103220.22
2023-02-06T00:55:43.871Z,103223.41
2023-02-06T00:58:13.863Z,103230.97
2023-02-06T01:00:40.499Z,103227.66
2023-02-06T01:03:07.283Z,103221.97
2023-02-06T01:05:34.726Z,103216.25
2023-02-06T01:08:04.642Z,103213.69
2023-02-06T01:10:32.632Z,103205.84
2023-02-06T01:13:04.351Z,103214.03
2023-02-06T01:15:32.430Z,103210.69
2023-02-06T01:18:07.252Z,103217.66
2023-02-06T01:20:42.362Z,103214.78
2023-02-06T01:23:11.020Z,103196.72
2023-02-06T01:25:44.719Z,103202.63
2023-02-06T01:28:19.301Z,103190.81
2023-02-06T01:30:47.055Z,103178.50
2023-02-06T01:33:24.438Z,103181.88
2023-02-06T01:36:04.592Z,103162.44
2023-02-06T01:38:31.405Z,103160.03
2023-02-06T01:40:59.733Z,103157.22
2023-02-06T01:43:29.596Z,103154.78
2023-02-06T01:45:56.479Z,103162.13
2023-02-06T01:48:31.968Z,103158.41
2023-02-06T01:50:59.030Z,103156.59
2023-02-06T01:53:26.923Z,103163.06
2023-02-06T01:55:54.566Z,103152.00
2023-02-06T01:58:29.054Z,103159.84
2023-02-06T02:00:56.547Z,103163.56
2023-02-06T02:03:23.334Z,103159.72
2023-02-06T02:05:50.578Z,103149.03
2023-02-06T02:08:27.165Z,103145.94
2023-02-06T02:10:53.859Z,103128.44
2023-02-06T02:13:20.507Z,103128.16
2023-02-06T02:16:11.248Z,103118.34
2023-02-06T02:19:10.534Z,103132.00
2023-02-06T02:21:58.471Z,103127.09
2023-02-06T02:24:50.432Z,103135.22
2023-02-06T02:27:37.247Z,103131.44
2023-02-06T02:30:35.096Z,103135.66
2023-02-06T02:33:37.287Z,103122.63
2023-02-06T02:36:03.838Z,103110.75
2023-02-06T02:38:39.771Z,103111.78
2023-02-06T02:41:12.290Z,103104.78
2023-02-06T02:43:50.521Z,103097.28
2023-02-06T02:46:28.019Z,103102.81
2023-02-06T02:48:57.118Z,103103.03
2023-02-06T02:51:24.642Z,103105.00
2023-02-06T02:53:51.399Z,103107.03
2023-02-06T02:56:22.668Z,103122.88
2023-02-06T02:58:54.652Z,103113.47
2023-02-06T03:01:35.838Z,103106.06
2023-02-06T03:04:16.449Z,103110.94
2023-02-06T03:06:49.097Z,103112.63
2023-02-06T03:09:25.928Z,103111.94
2023-02-06T03:12:01.533Z,103107.84
2023-02-06T03:14:32.976Z,103104.47
2023-02-06T03:17:04.044Z,103097.06
2023-02-06T03:19:36.940Z,103092.41
2023-02-06T03:22:04.266Z,103088.00
2023-02-06T03:24:34.810Z,103088.25
2023-02-06T03:27:04.276Z,103082.28
2023-02-06T03:29:33.575Z,103096.25
2023-02-06T03:32:44.857Z,103091.97
2023-02-06T03:35:18.569Z,103096.59
2023-02-06T03:37:45.625Z,103096.69
2023-02-06T03:40:12.389Z,103106.38
2023-02-06T03:42:41.720Z,103113.47
2023-02-06T03:45:14.020Z,103106.84
2023-02-06T03:47:41.469Z,103113.56
2023-02-06T03:50:09.522Z,103112.91
2023-02-06T03:52:39.178Z,103110.56
2023-02-06T03:55:13.137Z,103114.28
2023-02-06T03:57:42.163Z,103118.66
2023-02-06T04:00:09.522Z,103112.97
2023-02-06T04:02:37.410Z,103106.59
2023-02-06T04:05:04.362Z,103117.81
2023-02-06T04:07:31.491Z,103103.34
2023-02-06T04:09:58.167Z,103095.00
2023-02-06T04:12:25.184Z,103089.53
2023-02-06T04:14:52.301Z,103089.53
2023-02-06T04:17:38.471Z,103087.72
2023-02-06T04:20:06.103Z,103099.06
2023-02-06T04:22:32.929Z,103085.25
2023-02-06T04:24:59.539Z,103079.41
2023-02-06T04:27:26.213Z,103081.22
2023-02-06T04:29:52.835Z,103081.34
2023-02-06T04:32:19.520Z,103075.41
2023-02-06T04:34:46.123Z,103067.75
2023-02-06T04:37:12.788Z,103061.22
2023-02-06T04:39:39.465Z,103071.72
2023-02-06T04:42:07.007Z,103067.44
2023-02-06T04:44:34.030Z,103073.84
2023-02-06T04:47:01.219Z,103075.41
2023-02-06T04:49:27.862Z,103069.34
2023-02-06T04:51:54.502Z,103065.66
2023-02-06T04:54:21.170Z,103071.03
2023-02-06T04:56:49.064Z,103068.44
2023-02-06T04:59:15.897Z,103068.56
2023-02-06T05:01:42.640Z,103066.88
2023-02-06T05:04:09.435Z,103063.50
2023-02-06T05:06:37.570Z,103064.53
2023-02-06T05:09:05.221Z,103062.97
2023-02-06T05:11:34.124Z,103067.22
2023-02-06T05:14:00.862Z,103062.97
2023-02-06T05:16:27.529Z,103059.59
2023-02-06T05:18:55.706Z,103059.16
2023-02-06T05:21:23.637Z,103059.00
2023-02-06T05:23:50.339Z,103057.47
2023-02-06T05:26:17.169Z,103053.97
2023-02-06T05:28:46.680Z,103061.28
2023-02-06T05:31:19.622Z,103064.88
2023-02-06T05:33:48.990Z,103060.94
2023-02-06T05:36:17.133Z,103062.16
2023-02-06T05:38:43.790Z,103071.72
2023-02-06T05:41:10.509Z,103072.63
2023-02-06T05:43:38.146Z,103073.97
2023-02-06T05:46:04.874Z,103074.09
2023-02-06T05:48:32.833Z,103078.34
2023-02-06T05:50:59.473Z,103077.47
2023-02-06T05:53:26.144Z,103086.34
2023-02-06T05:55:52.740Z,103091.84
2023-02-06T05:58:19.408Z,103086.47
2023-02-06T06:00:45.994Z,103097.72
2023-02-06T06:03:12.765Z,103100.41
2023-02-06T06:05:39.586Z,103103.88
2023-02-06T06:08:06.260Z,103101.53
2023-02-06T06:10:32.901Z,103110.41
2023-02-06T06:12:59.857Z,103108.84
2023-02-06T06:15:26.509Z,103102.66
2023-02-06T06:17:53.134Z,103105.59
2023-02-06T06:20:19.763Z,103110.78
2023-02-06T06:22:46.390Z,103111.78
2023-02-06T06:25:12.964Z,103116.16
2023-02-06T06:27:39.629Z,103109.97
2023-02-06T06:30:06.687Z,103119.63
2023-02-06T06:32:33.316Z,103112.78
2023-02-06T06:34:59.895Z,103097.38
2023-02-06T06:37:26.483Z,103103.44
2023-02-06T06:39:53.089Z,103111.19
2023-02-06T06:42:19.777Z,103099.84
2023-02-06T06:44:46.392Z,103091.75
2023-02-06T06:47:13.057Z,103087.50
2023-02-06T06:49:40.402Z,103092.88
2023-02-06T06:52:13.395Z,103102.09
2023-02-06T06:54:46.733Z,103104.59
2023-02-06T06:57:13.578Z,103098.03
2023-02-06T06:59:40.350Z,103093.00
2023-02-06T07:02:07.250Z,103086.38
2023-02-06T07:04:35.328Z,103089.84
2023-02-06T07:07:02.174Z,103088.94
2023-02-06T07:09:28.988Z,103089.81
2023-02-06T07:11:55.797Z,103103.00
2023-02-06T07:14:22.649Z,103100.19
2023-02-06T07:16:49.333Z,103106.25
2023-02-06T07:19:16.298Z,103113.13
2023-02-06T07:21:43.077Z,103106.47
2023-02-06T07:24:09.827Z,103117.63
2023-02-06T07:26:36.542Z,103109.75
2023-02-06T07:29:03.764Z,103110.44
2023-02-06T07:31:30.421Z,103104.22
2023-02-06T07:33:57.116Z,103100.41
2023-02-06T07:36:23.768Z,103114.22
2023-02-06T07:38:50.383Z,103115.91
2023-02-06T07:41:17.969Z,103122.47
2023-02-06T07:43:44.726Z,103119.88
2023-02-06T07:46:11.514Z,103121.19
2023-02-06T07:48:40.699Z,103129.44
2023-02-06T07:51:08.583Z,103120.63
2023-02-06T07:53:36.276Z,103122.44
2023-02-06T07:56:09.486Z,103121.34
2023-02-06T07:58:36.143Z,103126.16
2023-02-06T08:01:05.120Z,103119.19
2023-02-06T08:03:32.056Z,103117.72
2023-02-06T08:05:58.796Z,103134.28
2023-02-06T08:08:25.738Z,103128.31
2023-02-06T08:10:52.546Z,103125.22
2023-02-06T08:13:19.198Z,103133.44
2023-02-06T08:15:45.795Z,103136.84
2023-02-06T08:18:12.394Z,103138.38
2023-02-06T08:20:38.968Z,103132.50
2023-02-06T08:23:05.601Z,103130.97
2023-02-06T08:25:32.227Z,103123.09
2023-02-06T08:27:58.923Z,103134.78
2023-02-06T08:30:25.677Z,103138.25
2023-02-06T08:32:52.363Z,103145.53
2023-02-06T08:35:18.984Z,103145.34
2023-02-06T08:37:45.584Z,103150.53
2023-02-06T08:40:12.471Z,103150.41
2023-02-06T08:42:39.128Z,103151.19
2023-02-06T08:45:06.172Z,103143.63
2023-02-06T08:47:32.906Z,103151.19
2023-02-06T08:50:01.577Z,103146.22
2023-02-06T08:52:29.780Z,103161.72
2023-02-06T08:54:56.445Z,103157.56
2023-02-06T08:57:23.114Z,103154.97
2023-02-06T08:59:51.056Z,103154.97
2023-02-06T09:02:17.779Z,103162.84
2023-02-06T09:04:44.421Z,103161.50
2023-02-06T09:07:11.051Z,103162.50
2023-02-06T09:09:37.764Z,103169.38
2023-02-06T09:12:05.199Z,103172.75
2023-02-06T09:14:32.049Z,103177.78
2023-02-06T09:16:58.746Z,103169.81
2023-02-06T09:19:25.900Z,103177.59
2023-02-06T09:21:52.585Z,103182.19
2023-02-06T09:24:19.310Z,103187.91
2023-02-06T09:26:58.962Z,103184.75
2023-02-06T09:29:31.659Z,103187.72
2023-02-06T09:31:59.039Z,103186.81
2023-02-06T09:34:27.234Z,103200.78
2023-02-06T09:36:55.076Z,103206.84
2023-02-06T09:39:21.754Z,103211.53
2023-02-06T09:42:13.193Z,103206.78
2023-02-06T09:44:46.283Z,103195.13
2023-02-06T09:47:47.476Z,103203.97
2023-02-06T09:50:28.279Z,103220.63
2023-02-06T09:53:21.110Z,103208.06
2023-02-06T09:56:17.015Z,103212.75
2023-02-06T09:58:51.447Z,103214.88
2023-02-06T10:01:29.952Z,103218.78
2023-02-06T10:04:18.965Z,103223.78
2023-02-06T10:07:17.860Z,103227.66
2023-02-06T10:09:52.624Z,103216.00
2023-02-06T10:12:34.109Z,103213.59
2023-02-06T10:15:14.080Z,103217.88
2023-02-06T10:17:54.185Z,103228.50
2023-02-06T10:20:35.686Z,103225.69
2023-02-06T10:23:23.637Z,103228.22
2023-02-06T10:26:05.547Z,103227.59
2023-02-06T10:28:35.359Z,103226.47
2023-02-06T10:31:26.736Z,103220.00
2023-02-06T10:34:15.411Z,103220.38
2023-02-06T10:36:54.524Z,103213.53
2023-02-06T10:39:49.399Z,103213.50
2023-02-06T10:42:43.925Z,103213.81
2023-02-06T10:45:20.090Z,103209.53
2023-02-06T10:48:13.212Z,103224.09
2023-02-06T10:50:46.272Z,103225.59
2023-02-06T10:53:26.814Z,103209.94
2023-02-06T10:55:57.433Z,103215.22
2023-02-06T10:58:29.290Z,103219.22
2023-02-06T11:00:57.142Z,103230.72
2023-02-06T11:03:27.045Z,103232.69
2023-02-06T11:05:53.732Z,103218.72
2023-02-06T11:08:25.764Z,103217.72
2023-02-06T11:10:52.942Z,103220.22
2023-02-06T11:13:33.383Z,103220.41
2023-02-06T11:16:08.315Z,103221.91
2023-02-06T11:18:37.533Z,103226.50
2023-02-06T11:21:08.015Z,103225.63
2023-02-06T11:23:35.114Z,103239.09
2023-02-06T11:26:08.941Z,103247.69
2023-02-06T11:28:38.454Z,103251.28
2023-02-06T11:31:07.407Z,103248.38
2023-02-06T11:33:50.930Z,103258.09
2023-02-06T11:36:30.374Z,103245.09
2023-02-06T11:39:20.248Z,103255.28
2023-02-06T11:42:11.307Z,103246.09
2023-02-06T11:44:42.563Z,103234.81
2023-02-06T11:47:38.014Z,103242.28
2023-02-06T11:50:14.063Z,103243.59
2023-02-06T11:52:47.056Z,103255.56
2023-02-06T11:55:29.578Z,103242.97
2023-02-06T11:58:11.501Z,103243.31
2023-02-06T12:01:00.121Z,103256.97
2023-02-06T12:03:33.032Z,103252.38
2023-02-06T12:06:08.918Z,103246.59
2023-02-06T12:08:46.291Z,103259.06
2023-02-06T12:11:26.409Z,103248.81
2023-02-06T12:14:01.081Z,103247.69
2023-02-06T12:16:27.880Z,103242.97
2023-02-06T12:18:57.329Z,103247.59
2023-02-06T12:21:41.653Z,103239.97
2023-02-06T12:24:21.922Z,103251.47
2023-02-06T12:26:49.277Z,103250.38
2023-02-06T12:29:30.838Z,103248.38
2023-02-06T12:32:15.113Z,103249.56
2023-02-06T12:35:01.067Z,103234.50
2023-02-06T12:37:37.746Z,103248.59
2023-02-06T12:40:04.526Z,103240.59
2023-02-06T12:42:36.323Z,103236.56
2023-02-06T12:45:44.913Z,103239.25
2023-02-06T12:48:40.264Z,103253.09
2023-02-06T12:51:27.626Z,103251.97
2023-02-06T12:53:59.400Z,103267.66
2023-02-06T12:56:35.033Z,103262.38
2023-02-06T12:59:46.206Z,103252.78
2023-02-06T13:02:26.150Z,103256.97
2023-02-06T13:04:53.330Z,103251.44
2023-02-06T13:07:22.231Z,103252.16
2023-02-06T13:09:59.326Z,103257.28
2023-02-06T13:12:28.849Z,103261.88
2023-02-06T13:15:06.874Z,103267.66
2023-02-06T13:17:39.069Z,103260.38
2023-02-06T13:20:14.140Z,103261.06
2023-02-06T13:23:11.998Z,103264.13
2023-02-06T13:25:38.723Z,103263.41
2023-02-06T13:28:21.599Z,103254.66
2023-02-06T13:31:01.913Z,103255.66
2023-02-06T13:33:40.765Z,103258.88
2023-02-06T13:36:10.112Z,103253.69
2023-02-06T13:38:42.340Z,103260.94
2023-02-06T13:41:15.189Z,103266.06
2023-02-06T13:43:54.390Z,103255.25
2023-02-06T13:46:24.323Z,103272.72
2023-02-06T13:48:53.811Z,103273.44
2023-02-06T13:51:25.875Z,103274.03
2023-02-06T13:54:17.537Z,103274.44
2023-02-06T13:56:59.728Z,103285.53
2023-02-06T13:59:33.992Z,103300.53
2023-02-06T14:02:08.235Z,103306.31
2023-02-06T14:04:34.912Z,103303.75
2023-02-06T14:07:23.293Z,103299.44
2023-02-06T14:10:18.212Z,103298.72
2023-02-06T14:12:49.319Z,103301.94
2023-02-06T14:15:43.870Z,103310.94
2023-02-06T14:18:26.974Z,103317.84
2023-02-06T14:21:18.542Z,103321.53
2023-02-06T14:24:08.691Z,103325.84
2023-02-06T14:26:54.319Z,103329.41
2023-02-06T14:29:49.835Z,103337.03
2023-02-06T14:32:33.157Z,103341.88
2023-02-06T14:35:06.290Z,103339.19
2023-02-06T14:37:54.054Z,103344.25
2023-02-06T14:40:26.305Z,103345.78
2023-02-06T14:42:56.763Z,103344.56
2023-02-06T14:45:33.814Z,103346.56
2023-02-06T14:48:07.307Z,103348.53
2023-02-06T14:50:40.453Z,103355.28
2023-02-06T14:53:10.333Z,103362.66
2023-02-06T14:55:39.528Z,103359.81
2023-02-06T14:58:28.229Z,103354.34
2023-02-06T15:00:56.309Z,103358.53
2023-02-06T15:03:26.941Z,103361.13
2023-02-06T15:06:02.282Z,103360.84
2023-02-06T15:08:29.084Z,103363.28
2023-02-06T15:11:00.913Z,103384.31
2023-02-06T15:13:34.833Z,103390.88
2023-02-06T15:16:09.150Z,103390.56
2023-02-06T15:18:36.470Z,103395.81
2023-02-06T15:21:09.023Z,103398.63
2023-02-06T15:23:58.438Z,103398.22
2023-02-06T15:26:36.049Z,103393.59
2023-02-06T15:29:05.230Z,103383.09
2023-02-06T15:31:32.351Z,103392.84
2023-02-06T15:34:00.311Z,103397.75
2023-02-06T15:36:36.031Z,103410.59
2023-02-06T15:39:06.180Z,103409.31
2023-02-06T15:41:34.023Z,103416.59
2023-02-06T15:44:03.434Z,103411.91
2023-02-06T15:46:30.979Z,103409.53
2023-02-06T15:48:58.414Z,103409.41
2023-02-06T15:51:27.673Z,103412.00
2023-02-06T15:54:20.067Z,103409.13
2023-02-06T15:56:58.805Z,103404.81
2023-02-06T15:59:26.842Z,103415.50
2023-02-06T16:01:56.453Z,103413.34
2023-02-06T16:04:31.465Z,103415.28
2023-02-06T16:07:15.913Z,103419.09
2023-02-06T16:09:48.730Z,103417.88
2023-02-06T16:12:17.096Z,103414.84
2023-02-06T16:15:01.173Z,103413.69
2023-02-06T16:17:37.046Z,103404.66
2023-02-06T16:20:28.595Z,103397.25
2023-02-06T16:23:25.551Z,103398.22
2023-02-06T16:26:21.806Z,103401.50
2023-02-06T16:29:04.473Z,103409.97
2023-02-06T16:31:35.017Z,103407.88
2023-02-06T16:34:04.738Z,103404.47
2023-02-06T16:36:32.346Z,103413.06
2023-02-06T16:39:04.150Z,103411.63
2023-02-06T16:41:34.675Z,103404.03
2023-02-06T16:44:02.036Z,103404.41
2023-02-06T16:46:29.123Z,103413.16
2023-02-06T16:48:56.495Z,103408.88
2023-02-06T16:51:25.789Z,103409.03
2023-02-06T16:53:52.788Z,103410.69
2023-02-06T16:56:22.704Z,103414.22
2023-02-06T16:58:49.637Z,103411.75
2023-02-06T17:01:25.718Z,103414.91
2023-02-06T17:03:53.068Z,103406.13
2023-02-06T17:06:25.812Z,103409.81
2023-02-06T17:08:54.634Z,103409.81
2023-02-06T17:11:21.283Z,103411.75
2023-02-06T17:13:50.655Z,103413.69
2023-02-06T17:16:20.248Z,103413.66
2023-02-06T17:18:47.192Z,103411.06
2023-02-06T17:21:15.186Z,103415.59
2023-02-06T17:23:41.994Z,103413.88
2023-02-06T17:26:13.393Z,103426.03
2023-02-06T17:28:40.377Z,103431.56
2023-02-06T17:31:07.447Z,103429.06
2023-02-06T17:33:34.361Z,103443.81
2023-02-06T17:36:01.639Z,103444.38
2023-02-06T17:38:30.680Z,103442.66
2023-02-06T17:40:57.393Z,103438.47
2023-02-06T17:43:25.088Z,103446.75
2023-02-06T17:45:52.023Z,103443.50
2023-02-06T17:48:18.933Z,103451.75
2023-02-06T17:50:45.553Z,103460.53
2023-02-06T17:53:14.057Z,103453.22
2023-02-06T17:55:40.983Z,103454.19
2023-02-06T17:58:08.874Z,103452.38
2023-02-06T18:00:35.772Z,103450.81
2023-02-06T18:03:02.730Z,103455.19
2023-02-06T18:05:29.346Z,103449.47
2023-02-06T18:07:56.134Z,103443.63
2023-02-06T18:10:24.670Z,103458.16
2023-02-06T18:12:51.421Z,103455.88
2023-02-06T18:15:18.110Z,103450.94
2023-02-06T18:17:44.840Z,103460.28
2023-02-06T18:20:12.208Z,103455.31
2023-02-06T18:22:41.159Z,103456.25
2023-02-06T18:25:12.823Z,103456.34
2023-02-06T18:27:40.857Z,103450.72
2023-02-06T18:30:09.043Z,103443.50
2023-02-06T18:32:37.549Z,103438.00
2023-02-06T18:35:04.726Z,103441.72
2023-02-06T18:37:31.403Z,103443.41
2023-02-06T18:39:58.063Z,103453.00
2023-02-06T18:42:43.415Z,103458.41
2023-02-06T18:45:11.159Z,103451.88
2023-02-06T18:47:39.105Z,103450.84
2023-02-06T18:50:06.085Z,103454.78
2023-02-06T18:52:32.766Z,103455.53
2023-02-06T18:54:59.370Z,103464.66
2023-02-06T18:57:26.050Z,103474.34
2023-02-06T18:59:52.664Z,103466.88
2023-02-06T19:02:19.552Z,103470.25
2023-02-06T19:04:46.306Z,103489.38
2023-02-06T19:07:16.562Z,103490.69
2023-02-06T19:09:43.185Z,103498.59
2023-02-06T19:12:10.095Z,103505.22
2023-02-06T19:14:36.742Z,103503.09
2023-02-06T19:17:03.382Z,103502.09
2023-02-06T19:19:30.054Z,103500.94
2023-02-06T19:21:57.771Z,103498.75
2023-02-06T19:24:26.198Z,103494.31
2023-02-06T19:26:52.820Z,103502.72
2023-02-06T19:29:33.575Z,103500.91
2023-02-06T19:32:06.041Z,103490.16
2023-02-06T19:34:36.205Z,103495.84
2023-02-06T19:37:04.518Z,103487.47
2023-02-06T19:39:34.005Z,103489.03
2023-02-06T19:42:02.035Z,103493.31
2023-02-06T19:44:30.441Z,103479.25
2023-02-06T19:46:57.155Z,103489.97
2023-02-06T19:49:24.592Z,103488.63
2023-02-06T19:51:52.777Z,103478.34
2023-02-06T19:54:19.585Z,103477.00
2023-02-06T19:56:47.754Z,103484.72
2023-02-06T19:59:20.027Z,103487.59
2023-02-06T20:01:57.863Z,103487.84
2023-02-06T20:04:27.681Z,103498.53
2023-02-06T20:06:55.871Z,103501.44
2023-02-06T20:09:23.232Z,103491.69
2023-02-06T20:11:50.504Z,103492.56
2023-02-06T20:14:18.038Z,103488.81
2023-02-06T20:16:45.432Z,103475.31
2023-02-06T20:19:18.699Z,103477.47
2023-02-06T20:21:48.993Z,103487.06
2023-02-06T20:24:18.638Z,103481.16
2023-02-06T20:26:45.321Z,103494.22
2023-02-06T20:29:19.517Z,103494.88
2023-02-06T20:31:46.285Z,103498.00
2023-02-06T20:34:13.217Z,103496.56
2023-02-06T20:36:41.835Z,103506.91
2023-02-06T20:39:11.229Z,103509.09
2023-02-06T20:41:38.403Z,103506.88
2023-02-06T20:44:05.566Z,103510.38
2023-02-06T20:46:33.772Z,103525.00
2023-02-06T20:49:03.429Z,103521.41
2023-02-06T20:51:30.991Z,103526.31
2023-02-06T20:53:57.988Z,103528.00
2023-02-06T20:56:24.861Z,103515.22
2023-02-06T20:58:52.138Z,103524.78
2023-02-06T21:01:25.167Z,103521.69
2023-02-06T21:03:54.858Z,103520.53
2023-02-06T21:06:21.920Z,103523.00
2023-02-06T21:08:50.322Z,103521.69
2023-02-06T21:11:18.474Z,103521.56
2023-02-06T21:13:45.144Z,103518.69
2023-02-06T21:16:13.580Z,103525.53
2023-02-06T21:18:42.494Z,103527.56
2023-02-06T21:21:12.833Z,103535.97
2023-02-06T21:23:40.820Z,103528.88
2023-02-06T21:26:09.665Z,103530.31
2023-02-06T21:28:52.021Z,103534.81
2023-02-06T21:31:26.365Z,103533.97
2023-02-06T21:33:53.402Z,103535.28
2023-02-06T21:36:21.195Z,103524.66
2023-02-06T21:38:50.698Z,103522.63
2023-02-06T21:41:18.850Z,103524.66
2023-02-06T21:43:45.858Z,103533.06
2023-02-06T21:46:13.299Z,103526.78
2023-02-06T21:48:40.759Z,103527.88
2023-02-06T21:51:16.674Z,103520.44
2023-02-06T21:53:44.694Z,103527.16
2023-02-06T21:56:14.567Z,103509.97
2023-02-06T21:58:41.213Z,103501.66
2023-02-06T22:01:09.138Z,103507.84
2023-02-06T22:03:36.160Z,103513.38
2023-02-06T22:06:08.749Z,103523.22
2023-02-06T22:08:36.506Z,103523.44
2023-02-06T22:11:17.366Z,103523.78
2023-02-06T22:13:45.033Z,103524.09
2023-02-06T22:16:14.179Z,103519.41
2023-02-06T22:18:41.368Z,103522.34
2023-02-06T22:21:10.849Z,103530.38
2023-02-06T22:23:38.439Z,103535.38
2023-02-06T22:26:07.471Z,103543.03
2023-02-06T22:28:34.340Z,103538.38
2023-02-06T22:31:09.514Z,103539.41
2023-02-06T22:33:39.841Z,103541.50
2023-02-06T22:36:09.276Z,103539.13
2023-02-06T22:38:36.359Z,103542.69
2023-02-06T22:41:05.985Z,103552.69
2023-02-06T22:43:34.720Z,103558.00
2023-02-06T22:46:01.608Z,103561.16
2023-02-06T22:48:30.641Z,103569.25
2023-02-06T22:51:05.771Z,103575.72
2023-02-06T22:53:32.460Z,103576.00
2023-02-06T22:56:19.372Z,103578.47
2023-02-06T22:58:46.366Z,103578.38
2023-02-06T23:01:14.344Z,103577.84
2023-02-06T23:03:41.061Z,103578.66
2023-02-06T23:06:15.718Z,103584.25
2023-02-06T23:08:43.111Z,103579.16
2023-02-06T23:11:10.183Z,103569.69
2023-02-06T23:13:37.308Z,103566.38
2023-02-06T23:16:04.498Z,103570.16
2023-02-06T23:18:32.411Z,103569.22
2023-02-06T23:21:11.256Z,103572.78
2023-02-06T23:23:38.861Z,103572.38
2023-02-06T23:26:10.446Z,103583.31
2023-02-06T23:28:37.605Z,103583.56
2023-02-06T23:31:04.491Z,103583.91
2023-02-06T23:33:33.780Z,103590.44
2023-02-06T23:36:14.251Z,103587.97
2023-02-06T23:38:41.434Z,103587.19
2023-02-06T23:41:11.092Z,103587.81
2023-02-06T23:43:40.580Z,103594.28
2023-02-06T23:46:09.870Z,103596.53
2023-02-06T23:48:40.609Z,103602.31
2023-02-06T23:51:07.577Z,103594.97
2023-02-06T23:53:35.839Z,103599.63
2023-02-06T23:56:08.848Z,103592.06
2023-02-06T23:58:35.649Z,103591.75
